Time;durP1;ratioP1;P1;durP2;ratioP2;P2;SDS_P1;SDS_P2;PMS_P1;PMS_P2;Temp;Humidity;BMP_temperature;BMP_pressure;BME280_temperature;BME280_humidity;BME280_pressure;Samples;Min_cycle;Max_cycle;Signal;HPM_P1;HPM_P2
2021/12/13 00:01:10;;;;;;;96.37;24.57;;;;;;;;;;5002765;28;20199;-78
2021/12/13 00:03:57;;;;;;;80.40;20.43;;;;;;;;;;5048035;28;20283;-79
2021/12/13 00:06:30;;;;;;;43.23;13.40;;;;;;;;;;5015087;28;20173;-78
2021/12/13 00:09:01;;;;;;;112.37;29.63;;;;;;;;;;5031590;28;20623;-79
2021/12/13 00:11:33;;;;;;;86.67;21.83;;;;;;;;;;5031291;28;20244;-77
2021/12/13 00:14:10;;;;;;;120.13;29.37;;;;;;;;;;5014902;28;20173;-77
2021/12/13 00:16:43;;;;;;;103.40;28.37;;;;;;;;;;5047796;28;20181;-80
2021/12/13 00:19:22;;;;;;;82.63;23.00;;;;;;;;;;5031215;28;20197;-79
2021/12/13 00:21:58;;;;;;;73.27;20.50;;;;;;;;;;5047536;28;20201;-78
2021/12/13 00:24:34;;;;;;;50.47;15.07;;;;;;;;;;5047837;28;20184;-77
2021/12/13 00:27:12;;;;;;;111.40;30.17;;;;;;;;;;5051319;28;20195;-76
2021/12/13 00:30:08;;;;;;;136.17;36.77;;;;;;;;;;5002579;28;20177;-79
2021/12/13 00:33:14;;;;;;;41.30;14.70;;;;;;;;;;5035800;28;20199;-77
2021/12/13 00:35:49;;;;;;;40.73;13.33;;;;;;;;;;5018722;28;20216;-78
2021/12/13 00:38:22;;;;;;;83.27;23.07;;;;;;;;;;5051261;28;20728;-77
2021/12/13 00:40:54;;;;;;;81.93;23.13;;;;;;;;;;5034826;28;20231;-79
2021/12/13 00:43:27;;;;;;;77.43;22.67;;;;;;;;;;5002529;28;20209;-78
2021/12/13 00:46:00;;;;;;;75.97;22.63;;;;;;;;;;5035926;28;20677;-80
2021/12/13 00:48:31;;;;;;;68.40;22.97;;;;;;;;;;5034683;28;20287;-78
2021/12/13 00:51:06;;;;;;;52.27;17.20;;;;;;;;;;5050840;28;20297;-79
2021/12/13 00:53:36;;;;;;;36.07;14.37;;;;;;;;;;5034350;28;20181;-79
2021/12/13 00:56:37;;;;;;;67.50;21.20;;;;;;;;;;5034487;28;20283;-78
2021/12/13 00:59:06;;;;;;;47.97;16.87;;;;;;;;;;5035383;28;20658;-78
2021/12/13 01:01:34;;;;;;;96.50;32.13;;;;;;;;;;5034433;28;20646;-78
2021/12/13 01:04:05;;;;;;;53.50;18.70;;;;;;;;;;5034123;28;20207;-78
2021/12/13 01:07:07;;;;;;;124.77;34.93;;;;;;;;;;5051035;28;20259;-78
2021/12/13 01:10:02;;;;;;;48.40;15.80;;;;;;;;;;5050449;28;20182;-78
2021/12/13 01:12:30;;;;;;;98.63;30.60;;;;;;;;;;5034878;28;20233;-78
2021/12/13 01:15:28;;;;;;;103.27;28.77;;;;;;;;;;5034900;28;20197;-79
2021/12/13 01:18:19;;;;;;;82.37;24.70;;;;;;;;;;5034109;28;20197;-78
2021/12/13 01:23:47;;;;;;;37.73;11.97;;;;;;;;;;5033978;28;20205;-78
2021/12/13 01:26:29;;;;;;;80.23;19.00;;;;;;;;;;5034063;28;20177;-77
2021/12/13 01:29:01;;;;;;;52.40;16.23;;;;;;;;;;5035045;28;20185;-78
2021/12/13 01:31:32;;;;;;;108.73;33.20;;;;;;;;;;5050472;28;20244;-78
2021/12/13 01:34:01;;;;;;;102.33;30.47;;;;;;;;;;5033869;28;20178;-79
2021/12/13 01:36:41;;;;;;;104.37;32.30;;;;;;;;;;5032781;28;20347;-80
2021/12/13 01:39:14;;;;;;;138.40;37.97;;;;;;;;;;5033675;28;20191;-79
2021/12/13 01:41:45;;;;;;;99.10;28.90;;;;;;;;;;5033857;28;20239;-79
2021/12/13 01:44:21;;;;;;;81.07;23.20;;;;;;;;;;5033791;28;20181;-79
2021/12/13 01:47:02;;;;;;;80.47;22.47;;;;;;;;;;5049854;28;20188;-81
2021/12/13 01:49:33;;;;;;;119.27;34.47;;;;;;;;;;5033445;28;20185;-79
2021/12/13 01:52:02;;;;;;;84.03;24.63;;;;;;;;;;5033499;28;20197;-78
2021/12/13 01:54:29;;;;;;;115.00;31.03;;;;;;;;;;5049501;28;20197;-79
2021/12/13 01:57:22;;;;;;;127.63;39.67;;;;;;;;;;5017266;28;20200;-79
2021/12/13 01:59:57;;;;;;;49.60;14.33;;;;;;;;;;5019686;28;20582;-80
2021/12/13 02:02:32;;;;;;;78.40;23.07;;;;;;;;;;5017481;28;20196;-79
2021/12/13 02:05:09;;;;;;;31.93;11.87;;;;;;;;;;5049596;28;20181;-80
2021/12/13 02:07:50;;;;;;;95.97;29.23;;;;;;;;;;5000550;28;20181;-81
2021/12/13 02:10:27;;;;;;;58.57;18.97;;;;;;;;;;5034323;28;20181;-79
2021/12/13 02:13:01;;;;;;;47.70;15.10;;;;;;;;;;5033003;28;20185;-78
2021/12/13 02:18:18;;;;;;;74.13;26.63;;;;;;;;;;5032796;28;20231;-78
2021/12/13 02:20:52;;;;;;;49.87;16.77;;;;;;;;;;5032858;28;20173;-77
2021/12/13 02:23:20;;;;;;;40.20;14.20;;;;;;;;;;5033590;28;20295;-79
2021/12/13 02:25:51;;;;;;;89.23;31.33;;;;;;;;;;5033941;28;20275;-77
2021/12/13 02:28:22;;;;;;;93.57;31.23;;;;;;;;;;5016310;28;20331;-78
2021/12/13 02:30:58;;;;;;;89.93;30.73;;;;;;;;;;5033552;28;20184;-78
2021/12/13 02:33:54;;;;;;;57.53;20.03;;;;;;;;;;5049165;28;20181;-77
2021/12/13 02:36:29;;;;;;;56.40;16.67;;;;;;;;;;5043783;28;20618;-78
2021/12/13 02:39:00;;;;;;;65.93;23.30;;;;;;;;;;5032230;28;20172;-77
2021/12/13 02:41:30;;;;;;;46.17;12.87;;;;;;;;;;5032578;28;20177;-77
2021/12/13 02:44:04;;;;;;;83.87;27.40;;;;;;;;;;5032585;28;20236;-77
2021/12/13 02:46:34;;;;;;;86.20;27.17;;;;;;;;;;5033421;28;20189;-77
2021/12/13 02:49:05;;;;;;;109.63;36.30;;;;;;;;;;5016037;28;20223;-77
2021/12/13 02:52:00;;;;;;;90.27;30.13;;;;;;;;;;5032480;28;20705;-76
2021/12/13 02:54:31;;;;;;;84.50;30.07;;;;;;;;;;5013438;28;20296;-77
2021/12/13 02:57:15;;;;;;;80.67;28.00;;;;;;;;;;5048532;28;20193;-79
2021/12/13 02:59:51;;;;;;;75.90;24.57;;;;;;;;;;5033453;28;20207;-78
2021/12/13 03:02:23;;;;;;;75.10;27.20;;;;;;;;;;5048383;28;20646;-78
2021/12/13 03:04:57;;;;;;;84.37;28.47;;;;;;;;;;5000538;28;20540;-77
2021/12/13 03:07:31;;;;;;;81.13;28.47;;;;;;;;;;5032056;28;20201;-77
2021/12/13 03:10:00;;;;;;;78.93;26.17;;;;;;;;;;5031799;28;20552;-78
2021/12/13 03:12:28;;;;;;;76.87;25.63;;;;;;;;;;5033398;28;20346;-78
2021/12/13 03:15:03;;;;;;;47.63;16.37;;;;;;;;;;5031756;28;20228;-79
2021/12/13 03:17:35;;;;;;;40.43;14.30;;;;;;;;;;4999521;28;20181;-78
2021/12/13 03:20:25;;;;;;;55.80;18.57;;;;;;;;;;5048440;28;20177;-78
2021/12/13 03:23:20;;;;;;;70.23;25.27;;;;;;;;;;5031749;28;20227;-79
2021/12/13 03:26:15;;;;;;;48.93;16.87;;;;;;;;;;5047923;28;20177;-78
2021/12/13 03:28:57;;;;;;;55.37;17.03;;;;;;;;;;5012141;28;20197;-79
2021/12/13 03:31:35;;;;;;;91.43;29.60;;;;;;;;;;5012185;28;20182;-77
2021/12/13 03:34:19;;;;;;;74.00;25.13;;;;;;;;;;5011761;28;20789;-79
2021/12/13 03:37:17;;;;;;;65.97;18.27;;;;;;;;;;5028468;28;20186;-78
2021/12/13 03:39:49;;;;;;;93.97;31.33;;;;;;;;;;5007147;28;20216;-77
2021/12/13 03:42:21;;;;;;;94.53;27.67;;;;;;;;;;5012038;28;20617;-79
2021/12/13 03:44:52;;;;;;;92.07;26.80;;;;;;;;;;5012009;28;20188;-81
2021/12/13 03:47:24;;;;;;;111.67;34.50;;;;;;;;;;5011784;28;20252;-80
2021/12/13 03:49:58;;;;;;;94.27;28.77;;;;;;;;;;5012040;28;20272;-78
2021/12/13 03:52:28;;;;;;;112.37;34.60;;;;;;;;;;4995934;28;20177;-78
2021/12/13 03:54:59;;;;;;;102.07;31.87;;;;;;;;;;5027822;28;20204;-79
2021/12/13 03:57:28;;;;;;;109.33;36.80;;;;;;;;;;4996123;28;20182;-78
2021/12/13 03:59:58;;;;;;;106.27;34.03;;;;;;;;;;5012466;28;20197;-77
2021/12/13 04:02:33;;;;;;;102.50;30.30;;;;;;;;;;4999453;28;20181;-77
2021/12/13 04:05:09;;;;;;;83.93;27.67;;;;;;;;;;4999255;28;20682;-79
2021/12/13 04:07:43;;;;;;;88.33;29.37;;;;;;;;;;5015486;28;20188;-78
2021/12/13 04:10:28;;;;;;;81.30;28.27;;;;;;;;;;4999680;28;20203;-79
2021/12/13 04:12:58;;;;;;;90.00;30.50;;;;;;;;;;4999256;28;20638;-79
2021/12/13 04:15:57;;;;;;;108.53;32.33;;;;;;;;;;4999144;28;20200;-78
2021/12/13 04:21:17;;;;;;;73.80;24.60;;;;;;;;;;5015506;28;20200;-78
2021/12/13 04:23:57;;;;;;;105.47;31.63;;;;;;;;;;5015022;28;20638;-79
2021/12/13 04:26:26;;;;;;;81.00;25.30;;;;;;;;;;5015303;28;20592;-77
2021/12/13 04:28:58;;;;;;;52.53;15.47;;;;;;;;;;5015123;28;20194;-77
2021/12/13 04:31:31;;;;;;;36.60;12.90;;;;;;;;;;4999248;28;20182;-78
2021/12/13 04:34:02;;;;;;;98.43;30.93;;;;;;;;;;5015057;28;20554;-82
2021/12/13 04:36:49;;;;;;;55.20;16.30;;;;;;;;;;5015242;28;20174;-80
2021/12/13 04:39:32;;;;;;;30.63;12.63;;;;;;;;;;4998793;28;20177;-79
2021/12/13 04:42:07;;;;;;;34.37;13.67;;;;;;;;;;5015304;28;20182;-80
2021/12/13 04:44:40;;;;;;;41.70;15.30;;;;;;;;;;5015059;28;20200;-77
2021/12/13 04:47:11;;;;;;;25.03;8.67;;;;;;;;;;4998997;28;20644;-77
2021/12/13 04:49:43;;;;;;;65.63;21.83;;;;;;;;;;5014704;28;20735;-79
2021/12/13 04:52:16;;;;;;;70.40;22.73;;;;;;;;;;5015888;28;20200;-77
2021/12/13 04:54:48;;;;;;;94.77;28.47;;;;;;;;;;5014473;28;20621;-79
2021/12/13 04:57:19;;;;;;;95.63;32.50;;;;;;;;;;5014763;28;20173;-77
2021/12/13 04:59:56;;;;;;;50.67;16.53;;;;;;;;;;5030923;28;20685;-76
2021/12/13 05:02:25;;;;;;;33.13;13.33;;;;;;;;;;4998109;28;20188;-76
2021/12/13 05:04:58;;;;;;;41.57;11.70;;;;;;;;;;5019389;28;20543;-77
2021/12/13 05:07:27;;;;;;;81.40;24.60;;;;;;;;;;5030791;28;20244;-79
2021/12/13 05:09:55;;;;;;;102.33;30.77;;;;;;;;;;5032151;28;20224;-78
2021/12/13 05:12:25;;;;;;;54.43;14.77;;;;;;;;;;5030809;28;20228;-79
2021/12/13 05:14:59;;;;;;;113.00;33.70;;;;;;;;;;5032415;28;20225;-79
2021/12/13 05:17:42;;;;;;;52.87;15.63;;;;;;;;;;5032390;28;20217;-78
2021/12/13 05:20:23;;;;;;;47.13;15.63;;;;;;;;;;4987887;28;20229;-80
2021/12/13 05:22:55;;;;;;;35.37;13.00;;;;;;;;;;5025047;28;20229;-78
2021/12/13 05:25:30;;;;;;;44.97;15.67;;;;;;;;;;5027380;28;20780;-79
2021/12/13 05:28:04;;;;;;;73.33;20.73;;;;;;;;;;5016930;28;20216;-79
2021/12/13 05:30:33;;;;;;;51.07;16.77;;;;;;;;;;5033296;28;20248;-78
2021/12/13 05:33:05;;;;;;;80.03;24.43;;;;;;;;;;5016454;28;20224;-77
2021/12/13 05:35:35;;;;;;;46.97;15.13;;;;;;;;;;5032342;28;20239;-78
2021/12/13 05:38:06;;;;;;;87.03;25.63;;;;;;;;;;5033057;28;20408;-76
2021/12/13 05:40:39;;;;;;;52.60;16.10;;;;;;;;;;5033069;28;20217;-76
2021/12/13 05:43:22;;;;;;;29.10;12.10;;;;;;;;;;5016232;28;20220;-76
2021/12/13 05:45:59;;;;;;;37.07;13.50;;;;;;;;;;5016412;28;20609;-76
2021/12/13 05:48:43;;;;;;;50.00;14.30;;;;;;;;;;5048993;28;20216;-77
2021/12/13 05:51:22;;;;;;;82.87;26.60;;;;;;;;;;5031891;28;20244;-77
2021/12/13 05:54:14;;;;;;;97.10;31.63;;;;;;;;;;5048885;28;20224;-79
2021/12/13 05:56:47;;;;;;;64.20;20.43;;;;;;;;;;5033459;28;20224;-76
2021/12/13 05:59:30;;;;;;;43.10;15.90;;;;;;;;;;5048577;28;20267;-77
2021/12/13 06:02:06;;;;;;;28.30;10.70;;;;;;;;;;5048695;28;20225;-76
2021/12/13 06:04:54;;;;;;;94.17;29.53;;;;;;;;;;5048065;28;20235;-76
2021/12/13 06:07:29;;;;;;;47.63;15.87;;;;;;;;;;5042038;28;20602;-77
2021/12/13 06:09:59;;;;;;;56.27;17.70;;;;;;;;;;5048551;28;20220;-76
2021/12/13 06:12:32;;;;;;;87.10;26.70;;;;;;;;;;5033442;28;20232;-77
2021/12/13 06:15:16;;;;;;;60.53;20.43;;;;;;;;;;5033183;28;20678;-77
2021/12/13 06:17:52;;;;;;;61.20;18.40;;;;;;;;;;5033113;28;20248;-78
2021/12/13 06:20:30;;;;;;;86.40;27.87;;;;;;;;;;5030772;28;20221;-77
2021/12/13 06:23:11;;;;;;;75.17;26.40;;;;;;;;;;5048329;28;20235;-78
2021/12/13 06:25:41;;;;;;;85.90;28.87;;;;;;;;;;5048809;28;20184;-77
2021/12/13 06:28:19;;;;;;;55.00;18.47;;;;;;;;;;5049076;28;20668;-78
2021/12/13 06:31:05;;;;;;;28.20;11.53;;;;;;;;;;5048387;28;20246;-76
2021/12/13 06:33:50;;;;;;;52.07;18.30;;;;;;;;;;5043324;28;20670;-77
2021/12/13 06:36:31;;;;;;;44.10;15.93;;;;;;;;;;5035433;28;20235;-76
2021/12/13 06:39:10;;;;;;;36.07;11.97;;;;;;;;;;5014976;28;20646;-78
2021/12/13 06:41:42;;;;;;;77.37;27.13;;;;;;;;;;5048018;28;20224;-76
2021/12/13 06:44:22;;;;;;;76.53;29.60;;;;;;;;;;5032504;28;20225;-79
2021/12/13 06:46:57;;;;;;;84.33;27.17;;;;;;;;;;5032498;28;20223;-78
2021/12/13 06:49:48;;;;;;;49.30;15.30;;;;;;;;;;5046895;28;20252;-77
2021/12/13 06:52:16;;;;;;;66.20;20.77;;;;;;;;;;5047738;28;20270;-77
2021/12/13 06:54:58;;;;;;;44.27;16.93;;;;;;;;;;5032534;28;20258;-76
2021/12/13 06:57:35;;;;;;;39.37;14.70;;;;;;;;;;5048281;28;20216;-77
2021/12/13 07:00:03;;;;;;;60.97;21.10;;;;;;;;;;5047763;28;20235;-78
2021/12/13 07:02:47;;;;;;;53.27;18.40;;;;;;;;;;5031720;28;20224;-78
2021/12/13 07:05:29;;;;;;;57.53;15.70;;;;;;;;;;5047172;28;20220;-77
2021/12/13 07:08:08;;;;;;;24.93;10.57;;;;;;;;;;5015665;28;20698;-77
2021/12/13 07:10:35;;;;;;;46.37;16.27;;;;;;;;;;5031253;28;20230;-78
2021/12/13 07:13:10;;;;;;;29.13;11.17;;;;;;;;;;5032573;28;20220;-77
2021/12/13 07:15:56;;;;;;;44.07;15.63;;;;;;;;;;5048177;28;20277;-80
2021/12/13 07:18:30;;;;;;;55.27;15.37;;;;;;;;;;5024622;28;20221;-79
2021/12/13 07:21:01;;;;;;;42.80;14.13;;;;;;;;;;5019449;28;20235;-78
2021/12/13 07:24:09;;;;;;;39.57;14.40;;;;;;;;;;5021377;28;20678;-77
2021/12/13 07:26:53;;;;;;;78.93;26.57;;;;;;;;;;5021913;28;20188;-77
2021/12/13 07:29:45;;;;;;;30.67;12.37;;;;;;;;;;5046428;28;20188;-83
2021/12/13 07:32:20;;;;;;;47.63;18.30;;;;;;;;;;5013171;28;20634;-82
2021/12/13 07:35:11;;;;;;;50.60;19.17;;;;;;;;;;5037603;28;20219;-82
2021/12/13 07:38:17;;;;;;;72.70;22.33;;;;;;;;;;5030897;28;20221;-80
2021/12/13 07:40:47;;;;;;;90.10;30.00;;;;;;;;;;5041016;28;20555;-82
2021/12/13 07:43:28;;;;;;;81.20;26.30;;;;;;;;;;5043827;28;20194;-83
2021/12/13 07:45:58;;;;;;;94.63;29.70;;;;;;;;;;5029828;28;20705;-83
2021/12/13 07:48:40;;;;;;;89.80;30.13;;;;;;;;;;5027238;28;20193;-83
2021/12/13 07:51:18;;;;;;;98.37;30.67;;;;;;;;;;5040498;28;20243;-78
2021/12/13 07:53:56;;;;;;;96.37;30.20;;;;;;;;;;5037738;28;20643;-80
2021/12/13 07:56:57;;;;;;;99.70;33.13;;;;;;;;;;5026093;28;20208;-81
2021/12/13 07:59:36;;;;;;;32.47;12.37;;;;;;;;;;5042065;28;20276;-82
2021/12/13 08:02:28;;;;;;;47.53;15.53;;;;;;;;;;5020504;28;20255;-80
2021/12/13 08:05:08;;;;;;;65.37;18.63;;;;;;;;;;5028040;28;20224;-82
2021/12/13 08:07:48;;;;;;;60.83;20.10;;;;;;;;;;5030620;28;20264;-85
2021/12/13 08:10:25;;;;;;;74.67;22.60;;;;;;;;;;5020330;28;20193;-82
2021/12/13 08:13:00;;;;;;;26.73;8.70;;;;;;;;;;5021649;28;20246;-87
2021/12/13 08:15:40;;;;;;;39.97;12.87;;;;;;;;;;4995416;28;20193;-86
2021/12/13 08:18:19;;;;;;;40.07;14.60;;;;;;;;;;5002060;28;20192;-83
2021/12/13 08:20:54;;;;;;;69.33;20.33;;;;;;;;;;5036746;28;20277;-84
2021/12/13 08:23:35;;;;;;;55.20;17.73;;;;;;;;;;5009220;28;20192;-82
2021/12/13 08:26:05;;;;;;;32.47;11.73;;;;;;;;;;5039651;28;20201;-83
2021/12/13 08:28:42;;;;;;;78.93;23.03;;;;;;;;;;5006984;28;20194;-83
2021/12/13 08:31:20;;;;;;;45.27;13.17;;;;;;;;;;5028190;28;20189;-83
2021/12/13 08:33:54;;;;;;;47.20;14.43;;;;;;;;;;5024813;28;20198;-85
2021/12/13 08:36:24;;;;;;;33.30;12.43;;;;;;;;;;5042283;28;20200;-87
2021/12/13 08:38:59;;;;;;;32.33;10.97;;;;;;;;;;5018252;28;20515;-87
2021/12/13 08:41:47;;;;;;;31.73;11.23;;;;;;;;;;5023908;28;20203;-88
2021/12/13 08:44:22;;;;;;;89.10;29.53;;;;;;;;;;5041650;28;20674;-83
2021/12/13 08:46:55;;;;;;;84.87;27.10;;;;;;;;;;5022499;28;20727;-86
2021/12/13 08:49:32;;;;;;;75.50;21.37;;;;;;;;;;5045929;28;20184;-83
2021/12/13 08:52:10;;;;;;;88.20;27.30;;;;;;;;;;5058341;28;20189;-83
2021/12/13 08:54:42;;;;;;;76.37;22.33;;;;;;;;;;5022899;28;20677;-84
2021/12/13 08:57:37;;;;;;;84.70;24.77;;;;;;;;;;5041392;28;20635;-86
2021/12/13 09:00:20;;;;;;;87.50;26.53;;;;;;;;;;5037846;28;20224;-84
2021/12/13 09:03:00;;;;;;;74.53;24.40;;;;;;;;;;5044300;28;20189;-88
2021/12/13 09:05:35;;;;;;;55.40;16.20;;;;;;;;;;5032586;28;20262;-83
2021/12/13 09:08:14;;;;;;;40.23;12.07;;;;;;;;;;4996034;28;20200;-85
2021/12/13 09:10:52;;;;;;;55.67;13.77;;;;;;;;;;5030966;28;20720;-86
2021/12/13 09:13:36;;;;;;;89.13;27.80;;;;;;;;;;5041538;28;20197;-87
2021/12/13 09:16:04;;;;;;;83.67;24.70;;;;;;;;;;5043064;28;20221;-88
2021/12/13 09:18:32;;;;;;;33.53;10.77;;;;;;;;;;5012682;28;20204;-80
2021/12/13 09:21:00;;;;;;;61.57;18.13;;;;;;;;;;5040640;28;20191;-82
2021/12/13 09:23:34;;;;;;;72.97;22.33;;;;;;;;;;5023452;28;20198;-81
2021/12/13 09:26:28;;;;;;;37.17;12.40;;;;;;;;;;5022300;28;20611;-81
2021/12/13 09:29:01;;;;;;;78.53;25.57;;;;;;;;;;5007308;28;20204;-80
2021/12/13 09:31:33;;;;;;;105.83;28.17;;;;;;;;;;5007369;28;20639;-80
2021/12/13 09:34:06;;;;;;;72.67;19.40;;;;;;;;;;5008558;28;20185;-83
2021/12/13 09:36:41;;;;;;;82.30;26.00;;;;;;;;;;5040662;28;20651;-82
2021/12/13 09:39:21;;;;;;;95.53;28.03;;;;;;;;;;5023826;28;20689;-80
2021/12/13 09:41:57;;;;;;;97.47;30.87;;;;;;;;;;5046149;28;20231;-81
2021/12/13 09:44:32;;;;;;;53.13;19.20;;;;;;;;;;5030408;28;20675;-82
2021/12/13 09:47:04;;;;;;;68.43;18.37;;;;;;;;;;5017181;28;20664;-81
2021/12/13 09:49:45;;;;;;;36.47;11.00;;;;;;;;;;5049147;28;20244;-82
2021/12/13 09:52:40;;;;;;;53.00;16.17;;;;;;;;;;5019569;28;20252;-80
2021/12/13 09:55:25;;;;;;;53.07;17.00;;;;;;;;;;5049265;28;20193;-81
2021/12/13 09:58:05;;;;;;;69.37;22.40;;;;;;;;;;5032138;28;20185;-81
2021/12/13 10:00:41;;;;;;;92.73;25.63;;;;;;;;;;5016430;28;20185;-82
2021/12/13 10:03:13;;;;;;;82.60;23.87;;;;;;;;;;5049091;28;20180;-81
2021/12/13 10:05:44;;;;;;;59.63;14.23;;;;;;;;;;5016654;28;20207;-81
2021/12/13 10:08:15;;;;;;;43.23;13.53;;;;;;;;;;5017078;28;20177;-81
2021/12/13 10:10:54;;;;;;;38.53;12.17;;;;;;;;;;5032524;28;20232;-84
2021/12/13 10:13:26;;;;;;;34.27;12.73;;;;;;;;;;5016472;28;20192;-82
2021/12/13 10:15:57;;;;;;;56.27;16.93;;;;;;;;;;5032805;28;20197;-81
2021/12/13 10:18:29;;;;;;;58.43;18.13;;;;;;;;;;5032954;28;20220;-83
2021/12/13 10:21:08;;;;;;;57.30;15.30;;;;;;;;;;5016649;28;20235;-82
2021/12/13 10:23:43;;;;;;;40.43;13.40;;;;;;;;;;5034006;28;20189;-82
2021/12/13 10:26:31;;;;;;;37.33;12.20;;;;;;;;;;5033066;28;20185;-81
2021/12/13 10:29:03;;;;;;;50.33;14.00;;;;;;;;;;5032777;28;20176;-81
2021/12/13 10:31:36;;;;;;;62.57;15.10;;;;;;;;;;5016748;28;20181;-82
2021/12/13 10:34:07;;;;;;;44.53;12.40;;;;;;;;;;5016472;28;20189;-82
2021/12/13 10:36:37;;;;;;;51.27;15.77;;;;;;;;;;5016452;28;20180;-82
2021/12/13 10:39:11;;;;;;;42.53;13.27;;;;;;;;;;5016265;28;20195;-82
2021/12/13 10:42:20;;;;;;;84.60;22.77;;;;;;;;;;5046164;28;20204;-81
2021/12/13 10:44:48;;;;;;;58.17;16.77;;;;;;;;;;5032261;28;20240;-81
2021/12/13 10:47:25;;;;;;;41.53;11.63;;;;;;;;;;5032596;28;20539;-81
2021/12/13 10:49:53;;;;;;;81.43;22.70;;;;;;;;;;5032496;28;20669;-80
2021/12/13 10:52:30;;;;;;;78.17;21.47;;;;;;;;;;5016137;28;20219;-81
2021/12/13 10:55:01;;;;;;;115.67;30.00;;;;;;;;;;5031169;28;20205;-84
2021/12/13 10:57:34;;;;;;;119.67;32.40;;;;;;;;;;5048674;28;20209;-83
2021/12/13 11:00:06;;;;;;;44.40;12.63;;;;;;;;;;5015805;28;20181;-83
2021/12/13 11:02:35;;;;;;;48.83;14.70;;;;;;;;;;5015879;28;20177;-83
2021/12/13 11:05:10;;;;;;;48.27;15.30;;;;;;;;;;5015695;28;20221;-83
2021/12/13 11:07:39;;;;;;;54.97;17.63;;;;;;;;;;5032398;28;20619;-82
2021/12/13 11:10:08;;;;;;;36.07;11.30;;;;;;;;;;5047488;28;20189;-84
2021/12/13 11:12:40;;;;;;;35.17;11.13;;;;;;;;;;5047927;28;20236;-83
2021/12/13 11:15:13;;;;;;;77.97;23.10;;;;;;;;;;5015936;28;20177;-84
2021/12/13 11:17:40;;;;;;;66.77;21.17;;;;;;;;;;5015757;28;20189;-81
2021/12/13 11:20:23;;;;;;;69.23;20.60;;;;;;;;;;5032693;28;20559;-81
2021/12/13 11:22:51;;;;;;;52.63;16.70;;;;;;;;;;5031756;28;20180;-84
2021/12/13 11:25:39;;;;;;;35.40;9.93;;;;;;;;;;5015243;28;20209;-83
2021/12/13 11:28:08;;;;;;;61.13;14.50;;;;;;;;;;5015530;28;20638;-81
2021/12/13 11:30:42;;;;;;;45.20;15.07;;;;;;;;;;5016147;28;20187;-82
2021/12/13 11:33:20;;;;;;;69.80;20.70;;;;;;;;;;5032149;28;20193;-81
2021/12/13 11:36:08;;;;;;;48.87;15.47;;;;;;;;;;5048087;28;20181;-79
2021/12/13 11:38:50;;;;;;;60.30;19.60;;;;;;;;;;5031806;28;20207;-81
2021/12/13 11:41:29;;;;;;;103.43;30.97;;;;;;;;;;5031742;28;20177;-80
2021/12/13 11:44:04;;;;;;;38.53;11.03;;;;;;;;;;5048037;28;20685;-79
2021/12/13 11:46:45;;;;;;;72.53;22.20;;;;;;;;;;5031322;28;20191;-80
2021/12/13 11:49:15;;;;;;;88.57;20.90;;;;;;;;;;5032857;28;20623;-79
2021/12/13 11:52:03;;;;;;;54.63;17.60;;;;;;;;;;5032813;28;20207;-80
2021/12/13 11:54:58;;;;;;;112.23;30.67;;;;;;;;;;5031349;28;20192;-80
2021/12/13 11:57:53;;;;;;;31.87;13.33;;;;;;;;;;5047688;28;20197;-81
2021/12/13 12:00:29;;;;;;;37.80;10.47;;;;;;;;;;5032603;28;20578;-80
2021/12/13 12:03:24;;;;;;;30.07;10.37;;;;;;;;;;5047498;28;20183;-81
2021/12/13 12:06:08;;;;;;;20.87;9.67;;;;;;;;;;5020857;28;20205;-78
2021/12/13 12:08:58;;;;;;;42.43;13.80;;;;;;;;;;5045779;28;20200;-80
2021/12/13 12:11:39;;;;;;;39.27;11.03;;;;;;;;;;5030225;28;20231;-82
2021/12/13 12:14:11;;;;;;;48.73;15.57;;;;;;;;;;5047332;28;20200;-86
2021/12/13 12:16:45;;;;;;;37.53;11.93;;;;;;;;;;5014903;28;20201;-81
2021/12/13 12:19:42;;;;;;;39.90;13.43;;;;;;;;;;5030893;28;20201;-85
2021/12/13 12:22:16;;;;;;;105.37;30.93;;;;;;;;;;5034148;28;20189;-85
2021/12/13 12:24:53;;;;;;;94.80;28.37;;;;;;;;;;5034747;28;20208;-82
2021/12/13 12:27:30;;;;;;;100.03;26.80;;;;;;;;;;5034931;28;20193;-85
2021/12/13 12:30:06;;;;;;;114.03;30.97;;;;;;;;;;5034389;28;20673;-88
2021/12/13 12:32:40;;;;;;;61.70;20.27;;;;;;;;;;5034394;28;20333;-88
2021/12/13 12:35:11;;;;;;;58.00;15.80;;;;;;;;;;5034529;28;20203;-88
2021/12/13 12:37:52;;;;;;;53.40;15.73;;;;;;;;;;5018511;28;20193;-82
2021/12/13 12:40:27;;;;;;;80.13;23.13;;;;;;;;;;5031267;28;20181;-82
2021/12/13 12:42:59;;;;;;;40.83;11.80;;;;;;;;;;5030912;28;20185;-82
2021/12/13 12:45:29;;;;;;;100.23;28.07;;;;;;;;;;5047598;28;20297;-82
2021/12/13 12:47:59;;;;;;;53.87;16.67;;;;;;;;;;5031051;28;20197;-82
2021/12/13 12:50:29;;;;;;;85.37;26.27;;;;;;;;;;4998685;28;20540;-83
2021/12/13 12:53:00;;;;;;;67.93;19.00;;;;;;;;;;5031087;28;20200;-80
2021/12/13 12:55:35;;;;;;;98.77;30.50;;;;;;;;;;5031083;28;20308;-80
2021/12/13 12:58:14;;;;;;;106.27;34.07;;;;;;;;;;5031141;28;20231;-80
2021/12/13 13:00:43;;;;;;;87.73;25.40;;;;;;;;;;5031195;28;20547;-81
2021/12/13 13:03:32;;;;;;;68.73;21.10;;;;;;;;;;5014452;28;20193;-80
2021/12/13 13:06:15;;;;;;;89.23;26.57;;;;;;;;;;5015224;28;20202;-80
2021/12/13 13:08:48;;;;;;;63.87;20.07;;;;;;;;;;5046277;28;20268;-80
2021/12/13 13:11:27;;;;;;;39.77;13.83;;;;;;;;;;5042937;28;20264;-80
2021/12/13 13:14:12;;;;;;;57.37;18.20;;;;;;;;;;5047205;28;20197;-78
2021/12/13 13:16:44;;;;;;;61.07;18.83;;;;;;;;;;5033811;28;20189;-76
2021/12/13 13:19:28;;;;;;;65.63;21.73;;;;;;;;;;5031358;28;20264;-78
2021/12/13 13:22:03;;;;;;;42.10;13.77;;;;;;;;;;5031486;28;20186;-80
2021/12/13 13:24:57;;;;;;;49.83;16.73;;;;;;;;;;5017102;28;20267;-80
2021/12/13 13:27:29;;;;;;;30.87;13.37;;;;;;;;;;5030233;28;20185;-77
2021/12/13 13:29:57;;;;;;;54.73;19.40;;;;;;;;;;5032852;28;20189;-77
2021/12/13 13:32:30;;;;;;;61.93;26.03;;;;;;;;;;5026719;28;20196;-83
2021/12/13 13:35:00;;;;;;;58.63;23.27;;;;;;;;;;5032392;28;20200;-80
2021/12/13 13:37:33;;;;;;;60.07;26.47;;;;;;;;;;5013720;28;20224;-79
2021/12/13 13:40:06;;;;;;;57.43;24.57;;;;;;;;;;5016686;28;20236;-78
2021/12/13 13:42:47;;;;;;;54.80;24.37;;;;;;;;;;5020968;28;20225;-80
2021/12/13 13:45:23;;;;;;;70.33;27.17;;;;;;;;;;5039020;28;20256;-81
2021/12/13 13:47:57;;;;;;;60.57;24.53;;;;;;;;;;5049202;28;20227;-81
2021/12/13 13:50:34;;;;;;;59.83;25.20;;;;;;;;;;5032239;28;20290;-81
2021/12/13 13:53:15;;;;;;;36.90;13.40;;;;;;;;;;5048603;28;20695;-83
2021/12/13 13:55:45;;;;;;;38.87;13.53;;;;;;;;;;5048106;28;20244;-79
2021/12/13 13:58:26;;;;;;;32.97;14.03;;;;;;;;;;5033293;28;20308;-81
2021/12/13 14:01:00;;;;;;;50.10;20.77;;;;;;;;;;5016251;28;20633;-79
2021/12/13 14:03:43;;;;;;;17.47;8.47;;;;;;;;;;5016400;28;20216;-81
2021/12/13 14:06:15;;;;;;;15.30;7.77;;;;;;;;;;5015283;28;20225;-78
2021/12/13 14:09:00;;;;;;;54.53;23.57;;;;;;;;;;5031939;28;20311;-77
2021/12/13 14:11:28;;;;;;;27.37;11.43;;;;;;;;;;5047991;28;20796;-78
2021/12/13 14:13:59;;;;;;;29.23;10.47;;;;;;;;;;5031979;28;20225;-75
2021/12/13 14:16:28;;;;;;;26.27;11.57;;;;;;;;;;5030060;28;20223;-77
2021/12/13 14:18:55;;;;;;;43.93;16.90;;;;;;;;;;5031242;28;20231;-76
2021/12/13 14:21:26;;;;;;;34.83;16.13;;;;;;;;;;5012750;28;20224;-77
2021/12/13 14:23:56;;;;;;;23.63;9.27;;;;;;;;;;4996833;28;20213;-77
2021/12/13 14:26:27;;;;;;;57.87;25.57;;;;;;;;;;5009972;28;20248;-77
2021/12/13 14:29:02;;;;;;;51.57;22.97;;;;;;;;;;5015909;28;20217;-76
2021/12/13 14:31:37;;;;;;;33.60;15.40;;;;;;;;;;5049317;28;20228;-78
2021/12/13 14:34:15;;;;;;;47.00;19.57;;;;;;;;;;5032167;28;20623;-78
2021/12/13 14:36:55;;;;;;;49.27;22.03;;;;;;;;;;5032076;28;20248;-77
2021/12/13 14:39:30;;;;;;;39.00;17.83;;;;;;;;;;5047544;28;20231;-77
2021/12/13 14:42:01;;;;;;;42.43;18.77;;;;;;;;;;5047859;28;20693;-77
2021/12/13 14:44:32;;;;;;;44.80;20.33;;;;;;;;;;5031261;28;20291;-76
2021/12/13 14:47:05;;;;;;;52.63;24.53;;;;;;;;;;5047718;28;20682;-77
2021/12/13 14:49:44;;;;;;;51.00;22.40;;;;;;;;;;5015472;28;20220;-76
2021/12/13 14:52:29;;;;;;;49.33;23.60;;;;;;;;;;5048255;28;20304;-76
2021/12/13 14:55:01;;;;;;;49.50;24.57;;;;;;;;;;5030211;28;20224;-76
2021/12/13 14:57:32;;;;;;;55.97;25.33;;;;;;;;;;5048015;28;20217;-76
2021/12/13 15:00:07;;;;;;;49.90;21.60;;;;;;;;;;5047841;28;20583;-77
2021/12/13 15:02:38;;;;;;;51.10;22.17;;;;;;;;;;5047938;28;20732;-77
2021/12/13 15:05:14;;;;;;;54.00;23.87;;;;;;;;;;5014992;28;20247;-77
2021/12/13 15:07:49;;;;;;;54.30;23.17;;;;;;;;;;5030924;28;20224;-79
2021/12/13 15:10:25;;;;;;;56.30;24.23;;;;;;;;;;5014970;28;20223;-79
2021/12/13 15:12:53;;;;;;;62.40;25.17;;;;;;;;;;5047542;28;20223;-80
2021/12/13 15:15:27;;;;;;;64.70;26.37;;;;;;;;;;5031061;28;20642;-80
2021/12/13 15:17:57;;;;;;;60.43;26.17;;;;;;;;;;5046170;28;20251;-76
2021/12/13 15:20:28;;;;;;;54.30;25.07;;;;;;;;;;4995365;28;20217;-77